createdAt,value
2019-03-11T00:00:35.472Z,4.60
2019-03-11T00:03:04.436Z,4.50
2019-03-11T00:05:33.009Z,4.50
2019-03-11T00:08:01.734Z,4.50
2019-03-11T00:10:30.514Z,4.50
2019-03-11T00:12:59.068Z,4.40
2019-03-11T00:15:27.712Z,4.40
2019-03-11T00:17:56.264Z,4.40
2019-03-11T00:20:24.837Z,4.40
2019-03-11T00:22:53.396Z,4.40
2019-03-11T00:25:21.948Z,4.40
2019-03-11T00:27:50.516Z,4.40
2019-03-11T00:30:19.077Z,4.30
2019-03-11T00:32:47.933Z,4.30
2019-03-11T00:35:16.851Z,4.30
2019-03-11T00:37:45.441Z,4.30
2019-03-11T00:40:15.484Z,4.30
2019-03-11T00:42:44.000Z,4.20
2019-03-11T00:45:16.183Z,4.20
2019-03-11T00:47:44.824Z,4.20
2019-03-11T00:50:13.932Z,4.20
2019-03-11T00:52:43.058Z,4.20
2019-03-11T00:55:12.920Z,4.10
2019-03-11T00:57:41.497Z,4.20
2019-03-11T01:00:25.437Z,4.10
2019-03-11T01:02:54.683Z,4.10
2019-03-11T01:05:23.241Z,4.10
2019-03-11T01:07:51.813Z,4.00
2019-03-11T01:10:20.437Z,4.00
2019-03-11T01:12:48.999Z,4.00
2019-03-11T01:15:17.557Z,4.00
2019-03-11T01:17:46.129Z,4.00
2019-03-11T01:20:14.684Z,4.00
2019-03-11T01:22:43.312Z,4.00
2019-03-11T01:25:13.961Z,4.00
2019-03-11T01:27:42.512Z,4.00
2019-03-11T01:30:14.100Z,3.90
2019-03-11T01:32:42.742Z,4.00
2019-03-11T01:35:11.648Z,4.00
2019-03-11T01:37:40.689Z,3.90
2019-03-11T01:40:16.922Z,4.00
2019-03-11T01:42:45.615Z,4.00
2019-03-11T01:45:18.483Z,4.00
2019-03-11T01:47:47.046Z,4.00
2019-03-11T01:50:15.965Z,4.00
2019-03-11T01:52:44.688Z,4.00
2019-03-11T01:55:16.165Z,4.00
2019-03-11T01:57:45.035Z,4.00
2019-03-11T02:00:15.556Z,4.00
2019-03-11T02:02:44.182Z,3.90
2019-03-11T02:05:13.136Z,4.00
2019-03-11T02:07:42.068Z,3.90
2019-03-11T02:10:18.077Z,3.90
2019-03-11T02:12:47.020Z,3.80
2019-03-11T02:15:17.028Z,3.80
2019-03-11T02:17:45.720Z,3.80
2019-03-11T02:20:15.940Z,3.80
2019-03-11T02:22:44.561Z,3.80
2019-03-11T02:25:13.672Z,3.80
2019-03-11T02:27:42.288Z,3.80
2019-03-11T02:30:13.101Z,3.80
2019-03-11T02:32:41.649Z,3.90
2019-03-11T02:35:10.361Z,3.90
2019-03-11T02:37:38.916Z,3.90
2019-03-11T02:40:10.604Z,3.90
2019-03-11T02:42:39.245Z,3.90
2019-03-11T02:45:09.537Z,3.90
2019-03-11T02:47:38.113Z,3.90
2019-03-11T02:50:09.126Z,4.00
2019-03-11T02:52:37.748Z,4.00
2019-03-11T02:55:06.946Z,4.10
2019-03-11T02:57:35.552Z,4.10
2019-03-11T03:00:10.157Z,4.20
2019-03-11T03:02:43.336Z,4.20
2019-03-11T03:05:13.672Z,4.20
2019-03-11T03:07:42.251Z,4.20
2019-03-11T03:10:10.970Z,4.20
2019-03-11T03:12:39.867Z,4.20
2019-03-11T03:15:09.866Z,4.20
2019-03-11T03:17:38.773Z,4.30
2019-03-11T03:20:10.473Z,4.30
2019-03-11T03:22:39.103Z,4.40
2019-03-11T03:25:09.933Z,4.40
2019-03-11T03:27:38.709Z,4.40
2019-03-11T03:30:14.205Z,4.40
2019-03-11T03:32:42.761Z,4.50
2019-03-11T03:35:11.587Z,4.50
2019-03-11T03:37:40.177Z,4.60
2019-03-11T03:40:11.030Z,4.60
2019-03-11T03:42:39.840Z,4.70
2019-03-11T03:45:23.633Z,4.80
2019-03-11T03:47:52.269Z,4.80
2019-03-11T03:50:22.469Z,4.90
2019-03-11T03:52:51.193Z,4.90
2019-03-11T03:55:19.832Z,4.90
2019-03-11T03:57:48.377Z,4.90
2019-03-11T04:00:17.088Z,4.80
2019-03-11T04:02:45.709Z,4.80
2019-03-11T04:05:14.507Z,4.80
2019-03-11T04:07:43.073Z,4.80
2019-03-11T04:10:16.338Z,4.80
2019-03-11T04:12:45.057Z,4.80
2019-03-11T04:15:14.078Z,4.90
2019-03-11T04:17:43.071Z,4.90
2019-03-11T04:20:26.824Z,4.80
2019-03-11T04:22:55.451Z,4.80
2019-03-11T04:25:24.221Z,4.80
2019-03-11T04:27:53.185Z,4.80
2019-03-11T04:30:23.843Z,4.70
2019-03-11T04:32:52.895Z,4.70
2019-03-11T04:35:21.509Z,4.60
2019-03-11T04:37:50.087Z,4.60
2019-03-11T04:40:18.648Z,4.50
2019-03-11T04:42:47.281Z,4.50
2019-03-11T04:45:16.674Z,4.50
2019-03-11T04:47:45.491Z,4.40
2019-03-11T04:50:18.996Z,4.40
2019-03-11T04:52:47.568Z,4.40
2019-03-11T04:55:16.768Z,4.40
2019-03-11T04:57:56.039Z,4.40
2019-03-11T05:00:29.139Z,4.40
2019-03-11T05:02:57.980Z,4.40
2019-03-11T05:05:26.602Z,4.40
2019-03-11T05:07:55.172Z,4.50
2019-03-11T05:10:23.840Z,4.50
2019-03-11T05:12:52.479Z,4.50
2019-03-11T05:15:21.095Z,4.40
2019-03-11T05:17:49.741Z,4.50
2019-03-11T05:20:18.298Z,4.50
2019-03-11T05:22:46.870Z,4.40
2019-03-11T05:25:16.177Z,4.30
2019-03-11T05:27:44.983Z,4.20
2019-03-11T05:30:18.173Z,4.10
2019-03-11T05:32:46.813Z,3.80
2019-03-11T05:35:15.432Z,3.60
2019-03-11T05:37:44.445Z,3.50
2019-03-11T05:40:18.176Z,3.40
2019-03-11T05:42:46.901Z,3.20
2019-03-11T05:45:17.476Z,3.20
2019-03-11T05:47:46.101Z,3.20
2019-03-11T05:50:16.833Z,3.10
2019-03-11T05:52:45.421Z,3.10
2019-03-11T05:55:14.598Z,3.00
2019-03-11T05:57:43.218Z,3.00
2019-03-11T06:00:21.164Z,3.00
2019-03-11T06:02:49.877Z,2.80
2019-03-11T06:05:18.516Z,2.80
2019-03-11T06:07:47.148Z,2.70
2019-03-11T06:10:16.720Z,2.70
2019-03-11T06:12:45.604Z,2.70
2019-03-11T06:15:15.287Z,2.60
2019-03-11T06:17:44.469Z,2.60
2019-03-11T06:20:29.155Z,2.50
2019-03-11T06:22:58.608Z,2.50
2019-03-11T06:25:27.181Z,2.40
2019-03-11T06:27:55.738Z,2.40
2019-03-11T06:30:24.324Z,2.40
2019-03-11T06:32:52.876Z,2.50
2019-03-11T06:35:21.440Z,2.40
2019-03-11T06:37:49.991Z,2.50
2019-03-11T06:40:18.688Z,2.50
2019-03-11T06:42:47.428Z,2.50
2019-03-11T06:45:16.187Z,2.50
2019-03-11T06:47:44.752Z,2.60
2019-03-11T06:50:16.907Z,2.60
2019-03-11T06:52:45.524Z,2.70
2019-03-11T06:55:14.355Z,2.70
2019-03-11T06:57:42.952Z,2.70
2019-03-11T07:00:16.360Z,2.70
2019-03-11T07:02:45.078Z,2.70
2019-03-11T07:05:20.052Z,2.80
2019-03-11T07:07:44.252Z,2.90
2019-03-11T07:10:14.456Z,3.00
2019-03-11T07:12:43.379Z,3.00
2019-03-11T07:15:14.136Z,2.90
2019-03-11T07:17:42.711Z,2.80
2019-03-11T07:20:16.368Z,2.80
2019-03-11T07:22:44.952Z,2.80
2019-03-11T07:25:13.560Z,2.80
2019-03-11T07:27:42.212Z,2.90
2019-03-11T07:30:18.004Z,2.90
2019-03-11T07:32:46.635Z,2.90
2019-03-11T07:35:15.262Z,2.80
2019-03-11T07:37:43.910Z,2.90
2019-03-11T07:40:14.312Z,2.90
2019-03-11T07:42:43.035Z,3.00
2019-03-11T07:45:14.092Z,3.00
2019-03-11T07:47:42.675Z,3.10
2019-03-11T07:50:12.694Z,3.00
2019-03-11T07:52:41.262Z,3.00
2019-03-11T07:55:10.952Z,3.00
2019-03-11T07:57:39.560Z,3.00
2019-03-11T08:00:21.244Z,3.10
2019-03-11T08:02:49.834Z,3.10
2019-03-11T08:05:18.366Z,3.20
2019-03-11T08:07:46.960Z,3.20
2019-03-11T08:10:18.089Z,3.10
2019-03-11T08:12:46.646Z,3.00
2019-03-11T08:15:15.953Z,3.10
2019-03-11T08:17:44.496Z,3.10
2019-03-11T08:20:14.608Z,3.20
2019-03-11T08:22:43.181Z,3.20
2019-03-11T08:25:15.957Z,3.20
2019-03-11T08:27:44.942Z,3.10
2019-03-11T08:30:21.630Z,3.10
2019-03-11T08:32:50.513Z,3.10
2019-03-11T08:35:19.527Z,3.00
2019-03-11T08:37:48.584Z,3.10
2019-03-11T08:40:21.467Z,3.10
2019-03-11T08:42:50.088Z,3.20
2019-03-11T08:45:19.731Z,3.20
2019-03-11T08:47:48.420Z,3.30
2019-03-11T08:50:17.350Z,3.50
2019-03-11T08:52:45.961Z,4.30
2019-03-11T08:55:14.772Z,6.10
2019-03-11T08:57:43.488Z,7.80
2019-03-11T09:00:17.752Z,10.90
2019-03-11T09:02:46.476Z,13.30
2019-03-11T09:05:15.540Z,16.50
2019-03-11T09:07:44.195Z,19.20
2019-03-11T09:10:15.357Z,19.60
2019-03-11T09:12:44.068Z,18.10
2019-03-11T09:15:16.875Z,14.60
2019-03-11T09:17:45.597Z,12.30
2019-03-11T09:20:15.393Z,11.00
2019-03-11T09:22:44.107Z,9.90
2019-03-11T09:25:15.367Z,8.50
2019-03-11T09:27:43.932Z,7.50
2019-03-11T09:30:18.480Z,6.90
2019-03-11T09:32:47.047Z,6.50
2019-03-11T09:35:15.670Z,6.20
2019-03-11T09:37:44.650Z,6.20
2019-03-11T09:40:18.184Z,6.40
2019-03-11T09:42:47.127Z,6.10
2019-03-11T09:45:16.569Z,5.80
2019-03-11T09:47:45.870Z,5.70
2019-03-11T09:50:18.141Z,5.70
2019-03-11T09:52:46.793Z,5.50
2019-03-11T09:55:20.564Z,5.50
2019-03-11T09:57:49.208Z,5.80
2019-03-11T10:00:31.414Z,6.00
2019-03-11T10:03:00.055Z,6.40
2019-03-11T10:05:28.677Z,6.40
2019-03-11T10:07:57.392Z,6.50
2019-03-11T10:10:30.641Z,6.50
2019-03-11T10:12:59.349Z,6.60
2019-03-11T10:15:27.896Z,6.80
2019-03-11T10:17:56.500Z,7.20
2019-03-11T10:20:25.036Z,7.30
2019-03-11T10:22:53.584Z,7.50
2019-03-11T10:25:22.224Z,7.50
2019-03-11T10:27:50.776Z,7.30
2019-03-11T10:30:23.061Z,7.10
2019-03-11T10:32:51.608Z,6.70
2019-03-11T10:35:31.773Z,6.40
2019-03-11T10:37:51.019Z,6.60
2019-03-11T10:40:21.538Z,6.90
2019-03-11T10:42:50.154Z,6.90
2019-03-11T10:45:26.620Z,6.80
2019-03-11T10:47:49.079Z,7.00
2019-03-11T10:50:18.989Z,7.00
2019-03-11T10:52:48.053Z,6.90
2019-03-11T10:55:19.051Z,6.60
2019-03-11T10:57:47.836Z,6.30
2019-03-11T11:00:28.863Z,5.90
2019-03-11T11:02:57.660Z,5.50
2019-03-11T11:05:26.348Z,5.60
2019-03-11T11:07:54.985Z,5.70
2019-03-11T11:10:23.768Z,5.70
2019-03-11T11:12:52.524Z,5.60
2019-03-11T11:15:25.620Z,5.70
2019-03-11T11:17:54.392Z,6.20
2019-03-11T11:20:23.685Z,7.00
2019-03-11T11:22:53.806Z,7.40
2019-03-11T11:25:26.770Z,7.40
2019-03-11T11:27:55.404Z,7.30
2019-03-11T11:30:30.846Z,7.20
2019-03-11T11:32:59.485Z,7.00
2019-03-11T11:35:28.377Z,7.10
2019-03-11T11:37:57.085Z,7.00
2019-03-11T11:40:31.864Z,6.90
2019-03-11T11:43:00.433Z,6.60
2019-03-11T11:45:30.321Z,6.50
2019-03-11T11:47:59.103Z,6.30
2019-03-11T11:50:27.910Z,6.10
2019-03-11T11:52:56.604Z,5.80
2019-03-11T11:55:25.301Z,5.60
2019-03-11T11:57:54.049Z,5.50
2019-03-11T12:00:26.453Z,5.50
2019-03-11T12:02:55.365Z,5.50
2019-03-11T12:05:24.456Z,5.70
2019-03-11T12:07:53.252Z,5.80
2019-03-11T12:10:23.764Z,6.00
2019-03-11T12:12:52.552Z,6.20
2019-03-11T12:15:21.184Z,6.20
2019-03-11T12:17:50.048Z,6.20
2019-03-11T12:20:26.052Z,6.00
2019-03-11T12:22:54.674Z,5.80
2019-03-11T12:25:23.340Z,5.60
2019-03-11T12:27:54.180Z,5.40
2019-03-11T12:30:27.506Z,5.30
2019-03-11T12:32:56.892Z,5.20
2019-03-11T12:35:25.735Z,5.10
2019-03-11T12:37:54.811Z,4.90
2019-03-11T12:40:23.769Z,4.70
2019-03-11T12:42:52.520Z,4.80
2019-03-11T12:45:23.174Z,5.20
2019-03-11T12:47:51.799Z,5.40
2019-03-11T12:50:22.906Z,5.90
2019-03-11T12:52:51.627Z,6.60
2019-03-11T12:55:21.632Z,7.10
2019-03-11T12:57:50.663Z,7.40
2019-03-11T13:00:21.227Z,7.20
2019-03-11T13:02:50.552Z,7.00
2019-03-11T13:05:19.738Z,7.00
2019-03-11T13:07:48.420Z,7.10
2019-03-11T13:10:28.416Z,7.10
2019-03-11T13:12:57.224Z,7.10
2019-03-11T13:15:26.223Z,6.80
2019-03-11T13:17:54.863Z,6.50
2019-03-11T13:20:37.720Z,6.20
2019-03-11T13:23:06.337Z,6.10
2019-03-11T13:25:34.892Z,6.10
2019-03-11T13:28:03.463Z,6.10
2019-03-11T13:30:32.063Z,6.10
2019-03-11T13:33:00.630Z,6.10
2019-03-11T13:35:29.180Z,6.20
2019-03-11T13:37:57.886Z,6.20
2019-03-11T13:40:26.456Z,6.30
2019-03-11T13:42:55.088Z,6.50
2019-03-11T13:45:23.665Z,6.40
2019-03-11T13:47:52.280Z,6.30
2019-03-11T13:50:21.021Z,6.30
2019-03-11T13:52:49.572Z,6.30
2019-03-11T13:55:18.584Z,6.50
2019-03-11T13:57:47.316Z,6.40
2019-03-11T14:00:19.906Z,6.40
2019-03-11T14:02:48.700Z,6.50
2019-03-11T14:05:17.448Z,6.60
2019-03-11T14:07:46.069Z,6.50
2019-03-11T14:10:15.483Z,6.20
2019-03-11T14:12:44.465Z,5.90
2019-03-11T14:15:15.417Z,5.80
2019-03-11T14:17:44.028Z,5.90
2019-03-11T14:20:13.946Z,5.90
2019-03-11T14:22:42.571Z,6.20
2019-03-11T14:25:12.291Z,6.40
2019-03-11T14:27:40.874Z,6.40
2019-03-11T14:30:19.228Z,6.40
2019-03-11T14:32:47.852Z,6.20
2019-03-11T14:35:16.490Z,6.10
2019-03-11T14:37:45.045Z,6.20
2019-03-11T14:40:16.024Z,6.10
2019-03-11T14:42:44.934Z,6.10
2019-03-11T14:45:15.536Z,6.10
2019-03-11T14:47:44.088Z,6.00
2019-03-11T14:50:14.310Z,6.00
2019-03-11T14:52:42.922Z,6.10
2019-03-11T14:55:12.740Z,6.20
2019-03-11T14:57:41.355Z,6.20
2019-03-11T15:00:22.931Z,6.20
2019-03-11T15:02:51.448Z,6.00
2019-03-11T15:05:20.877Z,5.90
2019-03-11T15:07:49.644Z,5.80
2019-03-11T15:10:19.701Z,5.70
2019-03-11T15:12:48.619Z,5.60
2019-03-11T15:15:22.158Z,5.40
2019-03-11T15:17:51.121Z,5.30
2019-03-11T15:20:19.840Z,5.20
2019-03-11T15:22:48.511Z,5.30
2019-03-11T15:25:18.052Z,5.30
2019-03-11T15:27:46.757Z,5.30
2019-03-11T15:30:22.376Z,5.20
2019-03-11T15:32:50.959Z,5.20
2019-03-11T15:35:19.577Z,5.10
2019-03-11T15:37:48.387Z,5.10
2019-03-11T15:40:19.008Z,5.20
2019-03-11T15:42:47.853Z,5.20
2019-03-11T15:45:17.511Z,5.30
2019-03-11T15:47:46.380Z,5.30
2019-03-11T15:50:26.568Z,5.60
2019-03-11T15:52:55.416Z,5.60
2019-03-11T15:55:24.039Z,5.60
2019-03-11T15:57:52.788Z,5.30
2019-03-11T16:00:22.379Z,5.10
2019-03-11T16:02:51.068Z,5.00
2019-03-11T16:05:20.879Z,4.80
2019-03-11T16:07:50.467Z,4.80
2019-03-11T16:10:20.839Z,4.80
2019-03-11T16:12:49.455Z,4.80
2019-03-11T16:15:18.270Z,4.90
2019-03-11T16:17:46.976Z,4.90
2019-03-11T16:20:18.656Z,4.90
2019-03-11T16:22:47.556Z,4.80
2019-03-11T16:25:16.444Z,4.70
2019-03-11T16:27:45.120Z,4.70
2019-03-11T16:30:18.837Z,4.60
2019-03-11T16:32:58.545Z,4.60
2019-03-11T16:35:18.179Z,4.60
2019-03-11T16:37:46.681Z,4.50
2019-03-11T16:40:15.697Z,4.40
2019-03-11T16:42:44.275Z,4.40
2019-03-11T16:45:15.732Z,4.40
2019-03-11T16:47:44.298Z,4.50
2019-03-11T16:50:26.991Z,4.50
2019-03-11T16:52:55.661Z,4.50
2019-03-11T16:55:35.122Z,4.40
2019-03-11T16:58:03.748Z,4.20
2019-03-11T17:00:40.078Z,4.10
2019-03-11T17:03:08.904Z,4.10
2019-03-11T17:05:37.714Z,4.00
2019-03-11T17:08:06.753Z,3.90
2019-03-11T17:10:35.485Z,3.80
2019-03-11T17:13:04.276Z,3.70
2019-03-11T17:15:32.904Z,3.60
2019-03-11T17:18:01.467Z,3.60
2019-03-11T17:20:30.180Z,3.40
2019-03-11T17:22:59.648Z,3.30
2019-03-11T17:25:28.224Z,3.30
2019-03-11T17:27:56.870Z,3.20
2019-03-11T17:30:26.792Z,3.20
2019-03-11T17:32:55.507Z,3.30
2019-03-11T17:35:24.229Z,3.30
2019-03-11T17:37:52.930Z,3.30
2019-03-11T17:40:22.819Z,3.20
2019-03-11T17:42:51.649Z,3.10
2019-03-11T17:45:20.281Z,3.10
2019-03-11T17:47:48.990Z,3.10
2019-03-11T17:50:21.475Z,3.00
2019-03-11T17:52:50.644Z,2.90
2019-03-11T17:55:20.246Z,2.80
2019-03-11T17:57:48.981Z,2.80
2019-03-11T18:00:26.322Z,2.70
2019-03-11T18:02:55.392Z,2.70
2019-03-11T18:05:24.396Z,2.70
2019-03-11T18:07:53.042Z,2.70
2019-03-11T18:10:21.661Z,2.60
2019-03-11T18:12:50.336Z,2.60
2019-03-11T18:15:19.209Z,2.60
2019-03-11T18:17:47.857Z,2.60
2019-03-11T18:20:20.824Z,2.70
2019-03-11T18:22:49.955Z,2.80
2019-03-11T18:25:19.595Z,2.80
2019-03-11T18:27:48.470Z,2.80
2019-03-11T18:30:27.265Z,2.80
2019-03-11T18:32:55.811Z,2.80
2019-03-11T18:35:24.469Z,2.80
2019-03-11T18:38:03.567Z,2.70
2019-03-11T18:40:24.955Z,2.70
2019-03-11T18:42:53.544Z,2.80
2019-03-11T18:45:22.199Z,2.80
2019-03-11T18:47:50.762Z,2.90
2019-03-11T18:50:21.618Z,2.90
2019-03-11T18:52:50.190Z,2.90
2019-03-11T18:55:18.746Z,2.90
2019-03-11T18:57:47.395Z,2.90
2019-03-11T19:00:23.966Z,2.90
2019-03-11T19:02:52.633Z,2.90
2019-03-11T19:05:22.593Z,2.90
2019-03-11T19:07:51.735Z,2.90
2019-03-11T19:10:21.596Z,2.90
2019-03-11T19:12:50.455Z,2.80
2019-03-11T19:15:24.154Z,2.80
2019-03-11T19:17:52.754Z,2.80
2019-03-11T19:20:22.656Z,2.80
2019-03-11T19:22:51.479Z,2.80
2019-03-11T19:25:20.165Z,2.80
2019-03-11T19:27:48.824Z,2.90
2019-03-11T19:30:20.504Z,2.90
2019-03-11T19:32:49.078Z,2.90
2019-03-11T19:35:18.565Z,3.00
2019-03-11T19:37:47.259Z,3.00
2019-03-11T19:40:21.014Z,3.00
2019-03-11T19:42:49.613Z,3.00
2019-03-11T19:45:18.256Z,3.10
2019-03-11T19:47:46.857Z,3.10
2019-03-11T19:50:19.298Z,3.10
2019-03-11T19:52:57.685Z,3.20
2019-03-11T19:55:18.457Z,3.20
2019-03-11T19:57:47.161Z,3.20
2019-03-11T20:00:20.449Z,3.20
2019-03-11T20:02:49.208Z,3.20
2019-03-11T20:05:20.630Z,3.20
2019-03-11T20:07:49.283Z,3.20
2019-03-11T20:10:17.909Z,3.10
2019-03-11T20:12:46.745Z,3.10
2019-03-11T20:15:15.647Z,3.20
2019-03-11T20:17:44.166Z,3.20
2019-03-11T20:20:17.126Z,3.10
2019-03-11T20:22:45.921Z,3.20
2019-03-11T20:25:17.657Z,3.20
2019-03-11T20:27:46.214Z,3.10
2019-03-11T20:30:20.140Z,3.20
2019-03-11T20:32:48.790Z,3.10
2019-03-11T20:35:18.031Z,3.10
2019-03-11T20:37:46.786Z,3.10
2019-03-11T20:40:15.504Z,3.20
2019-03-11T20:42:44.089Z,3.10
2019-03-11T20:45:14.675Z,3.10
2019-03-11T20:47:43.391Z,3.10
2019-03-11T20:50:16.649Z,3.10
2019-03-11T20:52:45.478Z,3.20
2019-03-11T20:55:15.442Z,3.20
2019-03-11T20:57:43.959Z,3.20
2019-03-11T21:00:24.296Z,3.20
2019-03-11T21:02:52.949Z,3.20
2019-03-11T21:05:36.722Z,3.10
2019-03-11T21:08:05.487Z,3.10
2019-03-11T21:10:34.047Z,3.10
2019-03-11T21:13:02.597Z,3.00
2019-03-11T21:15:31.376Z,3.00
2019-03-11T21:17:59.909Z,2.90
2019-03-11T21:20:28.663Z,3.00
2019-03-11T21:22:57.522Z,3.00
2019-03-11T21:25:26.190Z,3.00
2019-03-11T21:27:54.869Z,3.00
2019-03-11T21:30:27.235Z,2.90
2019-03-11T21:32:55.832Z,3.00
2019-03-11T21:35:24.655Z,3.00
2019-03-11T21:37:53.157Z,3.00
2019-03-11T21:40:22.909Z,3.00
2019-03-11T21:42:52.101Z,3.00
2019-03-11T21:45:32.927Z,3.00
2019-03-11T21:47:51.357Z,3.10
2019-03-11T21:50:26.630Z,3.10
2019-03-11T21:52:55.473Z,3.10
2019-03-11T21:55:24.126Z,3.10
2019-03-11T21:57:52.721Z,3.10
2019-03-11T22:00:34.006Z,3.10
2019-03-11T22:02:54.493Z,3.10
2019-03-11T22:05:23.211Z,3.10
2019-03-11T22:07:51.923Z,3.10
2019-03-11T22:10:21.533Z,3.20
2019-03-11T22:12:50.339Z,3.20
2019-03-11T22:15:24.162Z,3.20
2019-03-11T22:17:52.807Z,3.10
2019-03-11T22:20:21.397Z,3.20
2019-03-11T22:22:50.014Z,3.10
2019-03-11T22:25:19.720Z,3.10
2019-03-11T22:27:48.341Z,3.00
2019-03-11T22:30:21.033Z,2.90
2019-03-11T22:32:49.853Z,2.90
2019-03-11T22:35:19.652Z,2.90
2019-03-11T22:37:48.637Z,2.90
2019-03-11T22:40:20.482Z,2.90
2019-03-11T22:42:49.213Z,2.90
2019-03-11T22:45:22.752Z,2.90
2019-03-11T22:47:51.844Z,2.80
2019-03-11T22:50:20.766Z,2.90
2019-03-11T22:52:49.475Z,2.90
2019-03-11T22:55:19.394Z,2.80
2019-03-11T22:57:48.395Z,2.80
2019-03-11T23:00:36.060Z,2.80
2019-03-11T23:03:06.991Z,2.90
2019-03-11T23:05:35.738Z,2.80
2019-03-11T23:08:04.395Z,2.90
2019-03-11T23:10:32.964Z,3.00
2019-03-11T23:13:01.511Z,3.00
2019-03-11T23:15:30.156Z,3.00
2019-03-11T23:17:58.713Z,3.00
2019-03-11T23:20:27.296Z,3.10
2019-03-11T23:22:55.951Z,3.10
2019-03-11T23:25:24.521Z,3.00
2019-03-11T23:27:53.221Z,3.00
2019-03-11T23:30:21.779Z,3.00
2019-03-11T23:32:50.331Z,3.00
2019-03-11T23:35:18.880Z,3.00
2019-03-11T23:37:47.451Z,3.00
2019-03-11T23:40:16.005Z,3.00
2019-03-11T23:42:44.581Z,3.00
2019-03-11T23:45:13.196Z,3.00
2019-03-11T23:47:41.768Z,3.00
2019-03-11T23:50:14.664Z,3.00
2019-03-11T23:52:43.604Z,3.00
2019-03-11T23:55:12.787Z,3.00
2019-03-11T23:57:41.360Z,3.00
